Sunday, September 23, 2018, 12:31 AM EDT
Back to Local

KSYR, Syracuse Hancock International Airport

Location: Syracuse, NY, United States Lat: 43.117
Local Time: 12:31 AM EDT ( 4:31 GMT) Lon: -76.1
Time Zone: US/Eastern Elev: 410 ft

Show me the last for .
Show Decoded

2018-09-22 23:54 METAR KSYR 230354Z 00000KT 10SM OVC220 09/08 A3027 RMK AO2 SLP247 T00890083 =
2018-09-22 22:54 METAR KSYR 230254Z 00000KT 10SM FEW200 OVC250 09/08 A3026 RMK AO2 SLP246
                 T00890078 50004 =
2018-09-22 21:54 METAR KSYR 230154Z 00000KT 10SM SCT200 OVC250 10/07 A3027 RMK AO2 SLP247
                 T01000072 =
2018-09-22 20:54 METAR KSYR 230054Z 00000KT 10SM BKN200 10/07 A3027 RMK AO2 SLP248 T01000067 =
2018-09-22 19:54 METAR KSYR 222354Z 33004KT 10SM FEW100 BKN200 11/07 A3025 RMK AO2 SLP242
                 T01060072 10167 20100 50006 =
2018-09-22 18:54 METAR KSYR 222254Z 33006KT 10SM BKN200 BKN250 12/08 A3026 RMK AO2 SLP244
                 T01170078 =
2018-09-22 17:54 METAR KSYR 222154Z 33010KT 10SM FEW150 FEW200 BKN250 14/07 A3025 RMK AO2 SLP241
                 T01390067 =
2018-09-22 16:54 METAR KSYR 222054Z 32007KT 10SM FEW040 SCT200 BKN250 15/07 A3024 RMK AO2 SLP235
                 T01500072 55006 =
2018-09-22 15:54 METAR KSYR 221954Z 32008KT 10SM FEW040 BKN250 16/07 A3023 RMK AO2 SLP234
                 T01560067 =
2018-09-22 14:54 METAR KSYR 221854Z 26005KT 10SM FEW038 BKN250 15/07 A3024 RMK AO2 SLP236
                 T01500072 =
2018-09-22 13:54 METAR KSYR 221754Z 35007KT 10SM SCT038 BKN250 16/08 A3025 RMK AO2 SLP242
                 T01560078 10156 20128 56005 =
2018-09-22 12:54 METAR KSYR 221654Z 32007KT 300V010 10SM SCT040 BKN250 14/08 A3026 RMK AO2 SLP245
                 T01440078 =
2018-09-22 11:54 METAR KSYR 221554Z 36008KT 10SM SCT040 BKN250 16/08 A3026 RMK AO2 SLP243
                 T01560083 =
2018-09-22 10:54 METAR KSYR 221454Z 33010KT 10SM FEW025 BKN039 BKN250 13/08 A3027 RMK AO2 SLP246
                 T01330078 53024 =
2018-09-22 09:54 METAR KSYR 221354Z 35009KT 10SM FEW025 BKN040 BKN048 BKN200 13/08 A3024 RMK AO2
                 SLP238 T01280078 =
2018-09-22 08:54 METAR KSYR 221254Z 35010KT 10SM FEW040 BKN049 OVC150 13/10 A3022 RMK AO2 SLP229
                 T01330100 =
2018-09-22 07:54 METAR KSYR 221154Z 30009KT 10SM FEW040 BKN046 BKN150 OVC250 13/08 A3020 RMK AO2
                 SLP222 70005 T01330083 10183 20128 51036 =
2018-09-22 06:54 METAR KSYR 221054Z 30010KT 10SM FEW035 SCT050 BKN150 BKN250 13/08 A3017 RMK AO2
                 SLP211 T01330083 =
2018-09-22 05:54 METAR KSYR 220954Z 30010KT 10SM SCT035 BKN048 14/09 A3012 RMK AO2 SLP197
                 T01440089 =
2018-09-22 04:54 METAR KSYR 220854Z 30011G19KT 10SM SCT035 BKN047 14/10 A3009 RMK AO2 SLP185
                 T01440100 51040 =
2018-09-22 03:54 METAR KSYR 220754Z 28012G28KT 10SM SCT042 BKN055 15/10 A3006 RMK AO2 PK WND
                 29028/0725 SLP173 T01500100 =
2018-09-22 02:54 METAR KSYR 220654Z 30019G26KT 10SM FEW028 BKN047 BKN055 17/12 A3002 RMK AO2 PK
                 WND 29027/0622 SLP161 T01670122 =
2018-09-22 01:54 METAR KSYR 220554Z 29012G19KT 10SM FEW033 SCT070 BKN100 18/14 A2997 RMK AO2
                 SLP144 60005 T01830144 10233 20183 53042 =
2018-09-22 00:54 METAR KSYR 220454Z COR 29009KT 10SM FEW065 SCT100 19/15 A2993 RMK AO2 SLP129 PK
                 WND 30031/0402 WSHFT FROPA 0355 T01890150 402610183 =

Support USWX by starting your Amazon purchase here.